createdAt,value
2016-08-10T00:00:04.499Z,25.1
2016-08-10T00:00:14.511Z,25.2
2016-08-10T00:00:24.509Z,25.2
2016-08-10T00:00:34.519Z,25.2
2016-08-10T00:00:44.519Z,25
2016-08-10T00:00:54.526Z,25.2
2016-08-10T00:01:04.533Z,25.2
2016-08-10T00:01:14.537Z,25.2
2016-08-10T00:01:24.542Z,25.2
2016-08-10T00:01:34.551Z,25.2
2016-08-10T00:01:44.555Z,25.2
2016-08-10T00:01:54.559Z,25.2
2016-08-10T00:02:04.563Z,25.2
2016-08-10T00:02:14.569Z,25.3
2016-08-10T00:02:24.575Z,25.2
2016-08-10T00:02:34.583Z,25.2
2016-08-10T00:02:44.586Z,25.1
2016-08-10T00:02:54.595Z,25.2
2016-08-10T00:03:04.600Z,25.3
2016-08-10T00:03:14.602Z,25.2
2016-08-10T00:03:24.609Z,25.2
2016-08-10T00:03:34.615Z,25.2
2016-08-10T00:03:44.619Z,25.1
2016-08-10T00:03:54.625Z,25.2
2016-08-10T00:04:04.631Z,25.1
2016-08-10T00:04:14.638Z,25.2
2016-08-10T00:04:24.641Z,25.2
2016-08-10T00:04:34.647Z,25.1
2016-08-10T00:04:44.652Z,25.1
2016-08-10T00:04:54.659Z,25.2
2016-08-10T00:05:04.665Z,25.2
2016-08-10T00:05:14.669Z,25.2
2016-08-10T00:05:24.676Z,25.1
2016-08-10T00:05:34.680Z,25.2
2016-08-10T00:05:44.686Z,25.2
2016-08-10T00:05:54.691Z,25.2
2016-08-10T00:06:04.696Z,25.1
2016-08-10T00:06:14.702Z,25.2
2016-08-10T00:06:24.710Z,25.2
2016-08-10T00:06:34.715Z,25.1
2016-08-10T00:06:44.718Z,25.3
2016-08-10T00:06:54.724Z,25.1
2016-08-10T00:07:04.729Z,25.1
2016-08-10T00:07:14.735Z,25.2
2016-08-10T00:07:34.745Z,25.2
2016-08-10T00:07:44.753Z,25.1
2016-08-10T00:07:54.759Z,25.1
2016-08-10T00:08:04.767Z,25.2
2016-08-10T00:08:14.769Z,25.2
2016-08-10T00:08:24.775Z,25.2
2016-08-10T00:08:34.778Z,25.1
2016-08-10T00:08:44.787Z,25.1
2016-08-10T00:08:54.792Z,25.2
2016-08-10T00:09:04.795Z,25.1
2016-08-10T00:09:14.803Z,25.1
2016-08-10T00:09:24.809Z,25.1
2016-08-10T00:09:34.818Z,25.1
2016-08-10T00:09:44.818Z,25.1
2016-08-10T00:09:54.824Z,25.1
2016-08-10T00:10:04.832Z,25
2016-08-10T00:10:14.834Z,25
2016-08-10T00:10:24.843Z,25.1
2016-08-10T00:10:34.845Z,25
2016-08-10T00:10:44.853Z,25.1
2016-08-10T00:10:54.861Z,25.2
2016-08-10T00:11:04.862Z,25.1
2016-08-10T00:11:14.870Z,25.1
2016-08-10T00:11:24.875Z,25.1
2016-08-10T00:11:34.879Z,25.2
2016-08-10T00:11:44.885Z,25.1
2016-08-10T00:11:54.891Z,25.2
2016-08-10T00:12:04.896Z,25.1
2016-08-10T00:12:14.904Z,25.1
2016-08-10T00:12:24.907Z,25.1
2016-08-10T00:12:34.916Z,25.1
2016-08-10T00:12:44.918Z,25.1
2016-08-10T00:12:54.923Z,25.2
2016-08-10T00:13:04.929Z,25.1
2016-08-10T00:13:14.935Z,25.1
2016-08-10T00:13:24.940Z,25.1
2016-08-10T00:13:34.947Z,25.1
2016-08-10T00:13:44.953Z,25.1
2016-08-10T00:13:54.958Z,25.1
2016-08-10T00:14:04.963Z,25.1
2016-08-10T00:14:14.966Z,25
2016-08-10T00:14:24.971Z,25.1
2016-08-10T00:14:34.980Z,25
2016-08-10T00:14:44.984Z,25.1
2016-08-10T00:14:54.991Z,25.1
2016-08-10T00:15:04.995Z,25
2016-08-10T00:15:15.001Z,25.1
2016-08-10T00:15:25.007Z,25.1
2016-08-10T00:15:35.012Z,25.1
2016-08-10T00:15:45.019Z,25.1
2016-08-10T00:15:55.024Z,25.1
2016-08-10T00:16:05.033Z,25.1
2016-08-10T00:16:15.034Z,25.1
2016-08-10T00:16:25.041Z,25.1
2016-08-10T00:16:35.046Z,25.1
2016-08-10T00:16:45.051Z,25.1
2016-08-10T00:16:55.057Z,25.1
2016-08-10T00:17:05.066Z,25.1
2016-08-10T00:17:15.068Z,25.1
2016-08-10T00:17:25.076Z,25.1
2016-08-10T00:17:35.079Z,25.1
2016-08-10T00:17:45.085Z,25.1
2016-08-10T00:17:55.091Z,25.2
2016-08-10T00:18:05.094Z,25.1
2016-08-10T00:18:15.099Z,25.1
2016-08-10T00:18:25.105Z,25.1
2016-08-10T00:18:35.111Z,25.2
2016-08-10T00:18:45.116Z,25
2016-08-10T00:18:55.123Z,25.1
2016-08-10T00:19:05.130Z,25.1
2016-08-10T00:19:15.132Z,25
2016-08-10T00:19:25.140Z,25.1
2016-08-10T00:19:35.145Z,25.1
2016-08-10T00:19:55.157Z,25.1
2016-08-10T00:20:05.162Z,25
2016-08-10T00:20:15.165Z,25
2016-08-10T00:20:25.174Z,25.1
2016-08-10T00:20:35.176Z,25
2016-08-10T00:20:45.183Z,25.1
2016-08-10T00:20:55.189Z,25
2016-08-10T00:21:05.193Z,25.1
2016-08-10T00:21:15.200Z,25.1
2016-08-10T00:21:25.203Z,25
2016-08-10T00:21:35.217Z,25.1
2016-08-10T00:21:45.215Z,25.1
2016-08-10T00:21:55.223Z,25
2016-08-10T00:22:05.233Z,25.1
2016-08-10T00:22:15.233Z,25.1
2016-08-10T00:22:35.246Z,25.1
2016-08-10T00:22:45.261Z,25
2016-08-10T00:22:55.257Z,25.1
2016-08-10T00:23:05.260Z,25.1
2016-08-10T00:23:15.267Z,25.1
2016-08-10T00:23:25.271Z,25.1
2016-08-10T00:23:35.276Z,25.1
2016-08-10T00:23:45.281Z,25.1
2016-08-10T00:23:55.290Z,25.1
2016-08-10T00:24:05.292Z,25.1
2016-08-10T00:24:15.303Z,25
2016-08-10T00:24:25.306Z,25.1
2016-08-10T00:24:35.310Z,25
2016-08-10T00:24:45.315Z,25
2016-08-10T00:24:55.321Z,25
2016-08-10T00:25:05.327Z,25
2016-08-10T00:25:15.331Z,25.1
2016-08-10T00:25:25.341Z,25
2016-08-10T00:25:35.342Z,25.1
2016-08-10T00:25:45.346Z,25
2016-08-10T00:25:55.352Z,25
2016-08-10T00:26:05.361Z,25
2016-08-10T00:26:15.364Z,25
2016-08-10T00:26:25.370Z,25
2016-08-10T00:26:35.406Z,24.9
2016-08-10T00:26:45.379Z,25
2016-08-10T00:26:55.386Z,25
2016-08-10T00:27:05.394Z,25.1
2016-08-10T00:27:15.397Z,25
2016-08-10T00:27:25.407Z,25
2016-08-10T00:27:35.407Z,25
2016-08-10T00:27:45.413Z,25.1
2016-08-10T00:27:55.420Z,25
2016-08-10T00:28:05.426Z,25
2016-08-10T00:28:15.429Z,25.1
2016-08-10T00:28:25.436Z,25.1
2016-08-10T00:28:35.442Z,25
2016-08-10T00:28:45.448Z,25
2016-08-10T00:28:55.453Z,25
2016-08-10T00:29:05.460Z,25
2016-08-10T00:29:15.464Z,25.1
2016-08-10T00:29:25.470Z,25.1
2016-08-10T00:29:35.476Z,25
2016-08-10T00:29:45.482Z,25
2016-08-10T00:29:55.486Z,25
2016-08-10T00:30:05.491Z,25
2016-08-10T00:30:15.497Z,25
2016-08-10T00:30:25.502Z,25.1
2016-08-10T00:30:35.510Z,25
2016-08-10T00:30:45.513Z,25
2016-08-10T00:30:55.518Z,25
2016-08-10T00:31:05.525Z,24.9
2016-08-10T00:31:15.533Z,25
2016-08-10T00:31:25.535Z,25
2016-08-10T00:31:35.540Z,25
2016-08-10T00:31:45.545Z,25
2016-08-10T00:31:55.552Z,25
2016-08-10T00:32:05.556Z,25
2016-08-10T00:32:15.567Z,24.9
2016-08-10T00:32:25.569Z,25
2016-08-10T00:32:35.576Z,24.9
2016-08-10T00:32:45.578Z,24.9
2016-08-10T00:32:55.586Z,24.9
2016-08-10T00:33:05.596Z,25
2016-08-10T00:33:15.600Z,24.9
2016-08-10T00:33:25.604Z,25
2016-08-10T00:33:35.608Z,25
2016-08-10T00:33:45.612Z,25
2016-08-10T00:33:55.617Z,24.9
2016-08-10T00:34:05.623Z,25
2016-08-10T00:34:15.630Z,25
2016-08-10T00:34:25.633Z,25
2016-08-10T00:34:35.641Z,24.9
2016-08-10T00:34:45.645Z,24.9
2016-08-10T00:34:55.651Z,24.9
2016-08-10T00:35:05.656Z,24.9
2016-08-10T00:35:15.661Z,25
2016-08-10T00:35:25.669Z,24.9
2016-08-10T00:35:35.672Z,25
2016-08-10T00:35:45.682Z,24.9
2016-08-10T00:35:55.686Z,24.9
2016-08-10T00:36:05.689Z,24.9
2016-08-10T00:36:15.695Z,24.9
2016-08-10T00:36:25.703Z,25
2016-08-10T00:36:35.704Z,24.9
2016-08-10T00:36:45.717Z,24.9
2016-08-10T00:36:55.715Z,25
2016-08-10T00:37:05.727Z,25
2016-08-10T00:37:15.729Z,24.9
2016-08-10T00:37:25.734Z,25
2016-08-10T00:37:45.747Z,24.9
2016-08-10T00:37:55.750Z,25
2016-08-10T00:38:05.758Z,24.9
2016-08-10T00:38:15.761Z,25
2016-08-10T00:38:25.768Z,25
2016-08-10T00:38:35.772Z,25
2016-08-10T00:38:45.777Z,25
2016-08-10T00:38:55.784Z,24.9
2016-08-10T00:39:05.790Z,24.9
2016-08-10T00:39:15.794Z,24.9
2016-08-10T00:39:25.806Z,24.9
2016-08-10T00:39:35.805Z,24.9
2016-08-10T00:39:45.812Z,24.9
2016-08-10T00:39:55.815Z,24.9
2016-08-10T00:40:05.820Z,24.9
2016-08-10T00:40:15.827Z,24.9
2016-08-10T00:40:25.833Z,25
2016-08-10T00:40:35.837Z,24.9
2016-08-10T00:40:45.844Z,24.9
2016-08-10T00:40:55.848Z,24.9
2016-08-10T00:41:05.855Z,24.9
2016-08-10T00:41:15.862Z,24.9
2016-08-10T00:41:25.865Z,24.9
2016-08-10T00:41:35.883Z,25
2016-08-10T00:41:45.875Z,24.9
2016-08-10T00:41:55.881Z,24.9
2016-08-10T00:42:05.888Z,24.9
2016-08-10T00:42:15.894Z,24.9
2016-08-10T00:42:25.898Z,25
2016-08-10T00:42:35.906Z,24.9
2016-08-10T00:42:45.910Z,25
2016-08-10T00:42:55.913Z,25
2016-08-10T00:43:05.922Z,24.9
2016-08-10T00:43:15.940Z,24.9
2016-08-10T00:43:25.929Z,24.8
2016-08-10T00:43:35.936Z,25
2016-08-10T00:43:45.940Z,25
2016-08-10T00:43:55.949Z,24.9
2016-08-10T00:44:05.954Z,24.9
2016-08-10T00:44:15.959Z,25
2016-08-10T00:44:25.965Z,24.9
2016-08-10T00:44:35.970Z,25
2016-08-10T00:44:45.976Z,24.9
2016-08-10T00:44:55.982Z,24.9
2016-08-10T00:45:05.987Z,25
2016-08-10T00:45:15.992Z,25
2016-08-10T00:45:25.997Z,24.9
2016-08-10T00:45:36.003Z,24.9
2016-08-10T00:45:46.013Z,24.8
2016-08-10T00:45:56.014Z,25
2016-08-10T00:46:06.019Z,24.9
2016-08-10T00:46:16.024Z,24.9
2016-08-10T00:46:26.030Z,24.9
2016-08-10T00:46:36.036Z,24.9
2016-08-10T00:46:46.047Z,24.9
2016-08-10T00:46:56.049Z,24.9
2016-08-10T00:47:06.052Z,24.9
2016-08-10T00:47:16.058Z,24.9
2016-08-10T00:47:26.069Z,25
2016-08-10T00:47:36.070Z,24.9
2016-08-10T00:47:46.074Z,24.9
2016-08-10T00:47:56.079Z,25
2016-08-10T00:48:06.089Z,25
2016-08-10T00:48:16.090Z,24.9
2016-08-10T00:48:26.096Z,25
2016-08-10T00:48:36.102Z,24.9
2016-08-10T00:48:46.108Z,24.9
2016-08-10T00:48:56.112Z,24.9
2016-08-10T00:49:06.118Z,24.9
2016-08-10T00:49:16.123Z,25
2016-08-10T00:49:26.129Z,24.9
2016-08-10T00:49:36.136Z,24.9
2016-08-10T00:49:46.140Z,25
2016-08-10T00:49:56.146Z,24.9
2016-08-10T00:50:06.154Z,24.9
2016-08-10T00:50:16.158Z,24.9
2016-08-10T00:50:26.163Z,24.9
2016-08-10T00:50:36.170Z,24.8
2016-08-10T00:50:46.176Z,24.8
2016-08-10T00:50:56.179Z,24.9
2016-08-10T00:51:06.185Z,24.9
2016-08-10T00:51:16.189Z,24.9
2016-08-10T00:51:26.196Z,25
2016-08-10T00:51:36.200Z,24.9
2016-08-10T00:51:46.207Z,24.9
2016-08-10T00:51:56.213Z,25
2016-08-10T00:52:06.216Z,24.9
2016-08-10T00:52:16.225Z,25
2016-08-10T00:52:26.231Z,24.9
2016-08-10T00:52:46.246Z,24.9
2016-08-10T00:52:56.243Z,24.9
2016-08-10T00:53:06.251Z,24.9
2016-08-10T00:53:16.257Z,25
2016-08-10T00:53:26.262Z,24.8
2016-08-10T00:53:36.271Z,24.9
2016-08-10T00:53:46.273Z,24.8
2016-08-10T00:53:56.278Z,24.9
2016-08-10T00:54:06.284Z,24.9
2016-08-10T00:54:16.288Z,24.8
2016-08-10T00:54:26.295Z,24.8
2016-08-10T00:54:36.300Z,24.8
2016-08-10T00:54:46.308Z,24.8
2016-08-10T00:54:56.312Z,24.9
2016-08-10T00:55:06.317Z,25
2016-08-10T00:55:16.325Z,24.9
2016-08-10T00:55:26.330Z,25
2016-08-10T00:55:36.333Z,25
2016-08-10T00:55:46.339Z,24.9
2016-08-10T00:55:56.348Z,24.9
2016-08-10T00:56:06.349Z,24.9
2016-08-10T00:56:16.355Z,24.9
2016-08-10T00:56:26.362Z,24.9
2016-08-10T00:56:36.368Z,24.8
2016-08-10T00:56:46.372Z,24.9
2016-08-10T00:56:56.378Z,24.9
2016-08-10T00:57:06.382Z,24.9
2016-08-10T00:57:16.390Z,25
2016-08-10T00:57:26.398Z,24.9
2016-08-10T00:57:36.419Z,24.9
2016-08-10T00:57:46.408Z,24.9
2016-08-10T00:57:56.410Z,24.9
2016-08-10T00:58:06.417Z,24.9
2016-08-10T00:58:16.421Z,24.8
2016-08-10T00:58:26.429Z,24.8
2016-08-10T00:58:36.433Z,24.8
2016-08-10T00:58:46.439Z,24.9
2016-08-10T00:58:56.442Z,24.8
2016-08-10T00:59:06.448Z,24.8
2016-08-10T00:59:16.455Z,24.9
2016-08-10T00:59:26.462Z,24.9
2016-08-10T00:59:36.464Z,24.8
2016-08-10T00:59:46.472Z,24.8
2016-08-10T00:59:56.475Z,24.8
2016-08-10T01:00:06.481Z,24.8
2016-08-10T01:00:16.486Z,24.8
2016-08-10T01:00:26.495Z,24.9
2016-08-10T01:00:36.497Z,24.8
2016-08-10T01:00:46.503Z,24.9
2016-08-10T01:00:56.509Z,24.8
2016-08-10T01:01:06.513Z,24.8
2016-08-10T01:01:16.527Z,24.8
2016-08-10T01:01:26.525Z,24.8
2016-08-10T01:01:36.532Z,24.9
2016-08-10T01:01:46.539Z,24.8
2016-08-10T01:01:56.543Z,24.8
2016-08-10T01:02:06.548Z,24.9
2016-08-10T01:02:16.554Z,24.8
2016-08-10T01:02:26.558Z,24.8
2016-08-10T01:02:36.570Z,24.8
2016-08-10T01:02:46.569Z,24.9
2016-08-10T01:02:56.577Z,24.8
2016-08-10T01:03:06.583Z,24.8
2016-08-10T01:03:16.590Z,25
2016-08-10T01:03:26.593Z,24.8
2016-08-10T01:03:36.596Z,24.9
2016-08-10T01:03:46.605Z,24.9
2016-08-10T01:03:56.608Z,24.7
2016-08-10T01:04:06.612Z,24.8
2016-08-10T01:04:16.622Z,24.8
2016-08-10T01:04:26.627Z,24.8
2016-08-10T01:04:36.631Z,24.8
2016-08-10T01:04:46.637Z,24.7
2016-08-10T01:04:56.641Z,24.6
2016-08-10T01:05:06.647Z,24.8
2016-08-10T01:05:16.652Z,24.8
2016-08-10T01:05:26.659Z,24.8
2016-08-10T01:05:36.663Z,24.8
2016-08-10T01:05:46.668Z,24.8
2016-08-10T01:05:56.676Z,24.8
2016-08-10T01:06:06.684Z,24.7
2016-08-10T01:06:16.685Z,24.8
2016-08-10T01:06:26.692Z,24.8
2016-08-10T01:06:36.697Z,24.8
2016-08-10T01:06:46.703Z,24.8
2016-08-10T01:06:56.707Z,24.8
2016-08-10T01:07:06.714Z,24.7
2016-08-10T01:07:16.718Z,24.7
2016-08-10T01:07:26.725Z,24.8
2016-08-10T01:07:46.740Z,24.6
2016-08-10T01:07:56.744Z,24.7
2016-08-10T01:08:06.748Z,24.7
2016-08-10T01:08:16.752Z,24.7
2016-08-10T01:08:26.758Z,24.7
2016-08-10T01:08:36.764Z,24.7
2016-08-10T01:08:46.769Z,24.8
2016-08-10T01:08:56.772Z,24.8
2016-08-10T01:09:06.779Z,24.8
2016-08-10T01:09:16.790Z,24.7
2016-08-10T01:09:26.791Z,24.8
2016-08-10T01:09:36.799Z,24.7
2016-08-10T01:09:46.802Z,24.8
2016-08-10T01:09:56.806Z,24.8
2016-08-10T01:10:06.811Z,24.8
2016-08-10T01:10:16.817Z,24.8
2016-08-10T01:10:26.822Z,24.8
2016-08-10T01:10:36.828Z,24.8
2016-08-10T01:10:46.832Z,24.7
2016-08-10T01:10:56.842Z,24.7
2016-08-10T01:11:06.846Z,24.7
2016-08-10T01:11:16.850Z,24.7
2016-08-10T01:11:26.855Z,24.7
2016-08-10T01:11:36.862Z,24.7
2016-08-10T01:11:46.868Z,24.8
2016-08-10T01:11:56.871Z,24.7
2016-08-10T01:12:06.878Z,24.7
2016-08-10T01:12:16.886Z,24.7
2016-08-10T01:12:26.890Z,24.7
2016-08-10T01:12:36.895Z,24.7
2016-08-10T01:12:46.901Z,24.8
2016-08-10T01:12:56.904Z,24.7
2016-08-10T01:13:06.911Z,24.7
2016-08-10T01:13:16.915Z,24.8
2016-08-10T01:13:26.921Z,24.7
2016-08-10T01:13:36.930Z,24.7
2016-08-10T01:13:46.933Z,24.8
2016-08-10T01:13:56.939Z,24.7
2016-08-10T01:14:06.942Z,24.7
2016-08-10T01:14:16.948Z,24.8
2016-08-10T01:14:26.955Z,24.7
2016-08-10T01:14:36.961Z,24.7
2016-08-10T01:14:46.967Z,24.7
2016-08-10T01:14:56.973Z,24.7
2016-08-10T01:15:06.977Z,24.7
2016-08-10T01:15:16.981Z,24.7
2016-08-10T01:15:26.988Z,24.7
2016-08-10T01:15:36.994Z,24.7
2016-08-10T01:15:47.004Z,24.7
2016-08-10T01:15:57.005Z,24.7
2016-08-10T01:16:07.009Z,24.7
2016-08-10T01:16:17.015Z,24.7
2016-08-10T01:16:27.023Z,24.6
2016-08-10T01:16:37.025Z,24.7
2016-08-10T01:16:47.033Z,24.8
2016-08-10T01:16:57.038Z,24.7
2016-08-10T01:17:07.044Z,24.7
2016-08-10T01:17:17.048Z,24.7
2016-08-10T01:17:27.052Z,24.7
2016-08-10T01:17:37.061Z,24.7
2016-08-10T01:17:47.069Z,24.7
2016-08-10T01:17:57.070Z,24.7
2016-08-10T01:18:07.076Z,24.7
2016-08-10T01:18:17.081Z,24.6
2016-08-10T01:18:27.090Z,24.7
2016-08-10T01:18:37.093Z,24.7
2016-08-10T01:18:47.097Z,24.7
2016-08-10T01:18:57.104Z,24.6
2016-08-10T01:19:07.111Z,24.6
2016-08-10T01:19:17.118Z,24.7
2016-08-10T01:19:27.120Z,24.7
2016-08-10T01:19:37.123Z,24.7
2016-08-10T01:19:47.133Z,24.7
2016-08-10T01:19:57.136Z,24.7
2016-08-10T01:20:07.141Z,24.7
2016-08-10T01:20:17.146Z,24.6
2016-08-10T01:20:27.153Z,24.7
2016-08-10T01:20:37.158Z,24.7
2016-08-10T01:20:47.163Z,24.6
2016-08-10T01:20:57.169Z,24.6
2016-08-10T01:21:07.174Z,24.7
2016-08-10T01:21:17.179Z,24.7
2016-08-10T01:21:27.185Z,24.6
2016-08-10T01:21:37.194Z,24.6
2016-08-10T01:21:47.199Z,24.7
2016-08-10T01:21:57.205Z,24.8
2016-08-10T01:22:07.214Z,24.7
2016-08-10T01:22:17.213Z,24.7
2016-08-10T01:22:27.219Z,24.7
2016-08-10T01:22:47.229Z,24.8
2016-08-10T01:22:57.240Z,24.6
2016-08-10T01:23:07.240Z,24.7
2016-08-10T01:23:17.251Z,24.7
2016-08-10T01:23:27.251Z,24.8
2016-08-10T01:23:37.255Z,24.7
2016-08-10T01:23:47.263Z,24.7
2016-08-10T01:23:57.271Z,24.7
2016-08-10T01:24:07.275Z,24.7
2016-08-10T01:24:17.278Z,24.5
2016-08-10T01:24:27.283Z,24.7
2016-08-10T01:24:37.290Z,24.7
2016-08-10T01:24:47.296Z,24.7
2016-08-10T01:24:57.300Z,24.6
2016-08-10T01:25:07.305Z,24.7
2016-08-10T01:25:17.320Z,24.7
2016-08-10T01:25:27.318Z,24.8
2016-08-10T01:25:37.323Z,24.7
2016-08-10T01:25:47.329Z,24.7
2016-08-10T01:25:57.334Z,24.7
2016-08-10T01:26:07.338Z,24.6
2016-08-10T01:26:17.346Z,24.7
2016-08-10T01:26:27.349Z,24.7
2016-08-10T01:26:37.357Z,24.6
2016-08-10T01:26:47.359Z,24.6
2016-08-10T01:26:57.415Z,24.7
2016-08-10T01:27:07.381Z,24.6
2016-08-10T01:27:17.380Z,24.7
2016-08-10T01:27:27.384Z,24.7
2016-08-10T01:27:37.388Z,24.7
2016-08-10T01:27:47.396Z,24.6
2016-08-10T01:27:57.398Z,24.6
2016-08-10T01:28:07.405Z,24.6
2016-08-10T01:28:17.410Z,24.6
2016-08-10T01:28:27.421Z,24.7
2016-08-10T01:28:37.422Z,24.5
2016-08-10T01:28:47.430Z,24.6
2016-08-10T01:28:57.430Z,24.7
2016-08-10T01:29:07.441Z,24.7
2016-08-10T01:29:17.444Z,24.7
2016-08-10T01:29:27.452Z,24.7
2016-08-10T01:29:37.454Z,24.7
2016-08-10T01:29:47.462Z,24.7
2016-08-10T01:29:57.466Z,24.8
2016-08-10T01:30:07.474Z,24.6
2016-08-10T01:30:17.477Z,24.7
2016-08-10T01:30:27.482Z,24.6
2016-08-10T01:30:37.489Z,24.7
2016-08-10T01:30:47.490Z,24.6
2016-08-10T01:30:57.497Z,24.5
2016-08-10T01:31:07.507Z,24.7
2016-08-10T01:31:17.510Z,24.5
2016-08-10T01:31:27.515Z,24.7
2016-08-10T01:31:37.521Z,24.6
2016-08-10T01:31:47.530Z,24.7
2016-08-10T01:31:57.532Z,24.7
2016-08-10T01:32:07.536Z,24.6
2016-08-10T01:32:17.543Z,24.7
2016-08-10T01:32:27.548Z,24.7
2016-08-10T01:32:37.555Z,24.7
2016-08-10T01:32:47.559Z,24.7
2016-08-10T01:32:57.566Z,24.7
2016-08-10T01:33:07.570Z,24.7
2016-08-10T01:33:17.576Z,24.7
2016-08-10T01:33:27.579Z,24.7
2016-08-10T01:33:37.587Z,24.7
2016-08-10T01:33:47.592Z,24.7
2016-08-10T01:33:57.601Z,24.7
2016-08-10T01:34:07.603Z,24.7
2016-08-10T01:34:17.611Z,24.7
2016-08-10T01:34:27.615Z,24.7
2016-08-10T01:34:37.621Z,24.7
2016-08-10T01:34:47.624Z,24.7
2016-08-10T01:34:57.630Z,24.7
2016-08-10T01:35:07.635Z,24.7
2016-08-10T01:35:17.641Z,24.5
2016-08-10T01:35:27.647Z,24.6
2016-08-10T01:35:37.650Z,24.7
2016-08-10T01:35:47.659Z,24.7
2016-08-10T01:35:57.664Z,24.6
2016-08-10T01:36:07.669Z,24.7
2016-08-10T01:36:17.674Z,24.6
2016-08-10T01:36:27.678Z,24.7
2016-08-10T01:36:37.688Z,24.7
2016-08-10T01:36:47.689Z,24.6
2016-08-10T01:36:57.694Z,24.6
2016-08-10T01:37:07.701Z,24.7
2016-08-10T01:37:17.706Z,24.7
2016-08-10T01:37:27.712Z,24.7
2016-08-10T01:37:37.717Z,24.7
2016-08-10T01:37:57.729Z,24.5
2016-08-10T01:38:07.733Z,24.6
2016-08-10T01:38:17.740Z,24.6
2016-08-10T01:38:27.747Z,24.6
2016-08-10T01:38:37.751Z,24.6
2016-08-10T01:38:47.756Z,24.5
2016-08-10T01:38:57.763Z,24.6
2016-08-10T01:39:07.766Z,24.6
2016-08-10T01:39:17.772Z,24.6
2016-08-10T01:39:27.782Z,24.5
2016-08-10T01:39:37.783Z,24.6
2016-08-10T01:39:47.790Z,24.6
2016-08-10T01:39:57.803Z,24.5
2016-08-10T01:40:07.800Z,24.6
2016-08-10T01:40:17.804Z,24.7
2016-08-10T01:40:27.810Z,24.5
2016-08-10T01:40:37.831Z,24.5
2016-08-10T01:40:47.820Z,24.6
2016-08-10T01:40:57.828Z,24.6
2016-08-10T01:41:07.832Z,24.6
2016-08-10T01:41:17.839Z,24.7
2016-08-10T01:41:27.844Z,24.7
2016-08-10T01:41:37.848Z,24.7
2016-08-10T01:41:47.853Z,24.7
2016-08-10T01:41:57.859Z,24.6
2016-08-10T01:42:07.866Z,24.6
2016-08-10T01:42:17.870Z,24.6
2016-08-10T01:42:27.881Z,24.7
2016-08-10T01:42:37.882Z,24.7
2016-08-10T01:42:47.889Z,24.6
2016-08-10T01:42:57.894Z,24.5
2016-08-10T01:43:07.897Z,24.6
2016-08-10T01:43:17.903Z,24.6
2016-08-10T01:43:27.908Z,24.5
2016-08-10T01:43:37.913Z,24.6
2016-08-10T01:43:47.920Z,24.6
2016-08-10T01:43:57.926Z,24.6
2016-08-10T01:44:07.933Z,24.6
2016-08-10T01:44:17.936Z,24.6
2016-08-10T01:44:27.943Z,24.5
2016-08-10T01:44:37.949Z,24.5
2016-08-10T01:44:47.952Z,24.6
2016-08-10T01:44:57.957Z,24.7
2016-08-10T01:45:07.967Z,24.6
2016-08-10T01:45:17.968Z,24.7
2016-08-10T01:45:27.976Z,24.6
2016-08-10T01:45:37.981Z,24.5
2016-08-10T01:45:47.987Z,24.6
2016-08-10T01:45:57.990Z,24.7
2016-08-10T01:46:07.997Z,24.7
2016-08-10T01:46:18.001Z,24.6
2016-08-10T01:46:28.007Z,24.5
2016-08-10T01:46:38.013Z,24.6
2016-08-10T01:46:48.018Z,24.6
2016-08-10T01:46:58.026Z,24.7
2016-08-10T01:47:08.031Z,24.6
2016-08-10T01:47:18.035Z,24.6
2016-08-10T01:47:28.040Z,24.6
2016-08-10T01:47:38.044Z,24.5
2016-08-10T01:47:48.051Z,24.6
2016-08-10T01:47:58.056Z,24.6
2016-08-10T01:48:08.063Z,24.7
2016-08-10T01:48:18.069Z,24.6
2016-08-10T01:48:28.074Z,24.6
2016-08-10T01:48:38.080Z,24.6
2016-08-10T01:48:48.084Z,24.6
2016-08-10T01:48:58.089Z,24.6
2016-08-10T01:49:08.095Z,24.6
2016-08-10T01:49:18.103Z,24.5
2016-08-10T01:49:28.106Z,24.6
2016-08-10T01:49:38.112Z,24.6
2016-08-10T01:49:48.122Z,24.6
2016-08-10T01:49:58.123Z,24.6
2016-08-10T01:50:08.129Z,24.5
2016-08-10T01:50:18.132Z,24.6
2016-08-10T01:50:28.142Z,24.6
2016-08-10T01:50:38.145Z,24.6
2016-08-10T01:50:48.153Z,24.6
2016-08-10T01:50:58.154Z,24.6
2016-08-10T01:51:08.160Z,24.6
2016-08-10T01:51:18.165Z,24.6
2016-08-10T01:51:28.170Z,24.6
2016-08-10T01:51:38.176Z,24.6
2016-08-10T01:51:48.182Z,24.6
2016-08-10T01:51:58.189Z,24.6
2016-08-10T01:52:08.192Z,24.6
2016-08-10T01:52:18.198Z,24.5
2016-08-10T01:52:28.206Z,24.6
2016-08-10T01:52:38.211Z,24.6
2016-08-10T01:52:58.272Z,24.6
2016-08-10T01:53:08.227Z,24.6
2016-08-10T01:53:18.233Z,24.6
2016-08-10T01:53:28.236Z,24.6
2016-08-10T01:53:38.242Z,24.5
2016-08-10T01:53:48.248Z,24.5
2016-08-10T01:53:58.259Z,24.6
2016-08-10T01:54:08.260Z,24.6
2016-08-10T01:54:18.264Z,24.5
2016-08-10T01:54:28.269Z,24.5
2016-08-10T01:54:38.274Z,24.6
2016-08-10T01:54:48.280Z,24.6
2016-08-10T01:54:58.286Z,24.5
2016-08-10T01:55:08.292Z,24.6
2016-08-10T01:55:18.298Z,24.5
2016-08-10T01:55:28.302Z,24.6
2016-08-10T01:55:38.312Z,24.6
2016-08-10T01:55:48.314Z,24.5
2016-08-10T01:55:58.319Z,24.5
2016-08-10T01:56:08.326Z,24.5
2016-08-10T01:56:18.333Z,24.5
2016-08-10T01:56:28.335Z,24.4
2016-08-10T01:56:38.346Z,24.5
2016-08-10T01:56:48.345Z,24.6
2016-08-10T01:56:58.354Z,24.5
2016-08-10T01:57:08.356Z,24.6
2016-08-10T01:57:18.363Z,24.6
2016-08-10T01:57:28.368Z,24.5
2016-08-10T01:57:38.375Z,24.6
2016-08-10T01:57:48.378Z,24.6
2016-08-10T01:57:58.392Z,24.6
2016-08-10T01:58:08.389Z,24.5
2016-08-10T01:58:18.400Z,24.6
2016-08-10T01:58:28.403Z,24.6
2016-08-10T01:58:38.409Z,24.6
2016-08-10T01:58:48.412Z,24.5
2016-08-10T01:58:58.418Z,24.6
2016-08-10T01:59:08.427Z,24.5
2016-08-10T01:59:18.427Z,24.5
2016-08-10T01:59:28.435Z,24.5
2016-08-10T01:59:38.440Z,24.5
2016-08-10T01:59:48.447Z,24.6
2016-08-10T01:59:58.454Z,24.5
2016-08-10T02:00:08.455Z,24.5
2016-08-10T02:00:18.460Z,24.5
2016-08-10T02:00:28.466Z,24.6
2016-08-10T02:00:38.472Z,24.5
2016-08-10T02:00:48.482Z,24.5
2016-08-10T02:00:58.482Z,24.5
2016-08-10T02:01:08.494Z,24.5
2016-08-10T02:01:18.493Z,24.4
2016-08-10T02:01:28.498Z,24.4
2016-08-10T02:01:38.506Z,24.4
2016-08-10T02:01:48.512Z,24.5
2016-08-10T02:01:58.516Z,24.5
2016-08-10T02:02:08.523Z,24.5
2016-08-10T02:02:18.525Z,24.5
2016-08-10T02:02:28.532Z,24.5
2016-08-10T02:02:38.536Z,24.4
2016-08-10T02:02:48.543Z,24.5
2016-08-10T02:02:58.548Z,24.4
2016-08-10T02:03:08.553Z,24.5
2016-08-10T02:03:18.559Z,24.4
2016-08-10T02:03:28.568Z,24.4
2016-08-10T02:03:38.572Z,24.5
2016-08-10T02:03:48.575Z,24.5
2016-08-10T02:03:58.580Z,24.4
2016-08-10T02:04:08.586Z,24.4
2016-08-10T02:04:18.591Z,24.5
2016-08-10T02:04:28.597Z,24.4
2016-08-10T02:04:38.603Z,24.5
2016-08-10T02:04:48.609Z,24.4
2016-08-10T02:04:58.618Z,24.5
2016-08-10T02:05:08.621Z,24.5
2016-08-10T02:05:18.625Z,24.4
2016-08-10T02:05:28.630Z,24.4
2016-08-10T02:05:38.635Z,24.5
2016-08-10T02:05:48.642Z,24.5
2016-08-10T02:05:58.647Z,24.4
2016-08-10T02:06:08.652Z,24.4
2016-08-10T02:06:18.659Z,24.5
2016-08-10T02:06:28.663Z,24.5
2016-08-10T02:06:38.668Z,24.5
2016-08-10T02:06:48.674Z,24.4
2016-08-10T02:06:58.679Z,24.4
2016-08-10T02:07:08.684Z,24.5
2016-08-10T02:07:18.691Z,24.5
2016-08-10T02:07:28.700Z,24.5
2016-08-10T02:07:38.707Z,24.4
2016-08-10T02:07:48.707Z,24.5
2016-08-10T02:08:08.719Z,24.4
2016-08-10T02:08:18.722Z,24.5
2016-08-10T02:08:28.729Z,24.4
2016-08-10T02:08:38.738Z,24.4
2016-08-10T02:08:48.740Z,24.4
2016-08-10T02:08:58.747Z,24.4
2016-08-10T02:09:08.750Z,24.4
2016-08-10T02:09:18.756Z,24.5
2016-08-10T02:09:28.761Z,24.5
2016-08-10T02:09:38.769Z,24.5
2016-08-10T02:09:48.772Z,24.5
2016-08-10T02:09:58.779Z,24.5
2016-08-10T02:10:08.785Z,24.5
2016-08-10T02:10:18.790Z,24.4
2016-08-10T02:10:28.798Z,24.4
2016-08-10T02:10:38.799Z,24.4
2016-08-10T02:10:48.804Z,24.5
2016-08-10T02:10:58.813Z,24.4
2016-08-10T02:11:08.815Z,24.4
2016-08-10T02:11:18.822Z,24.4
2016-08-10T02:11:28.828Z,24.4
2016-08-10T02:11:38.831Z,24.4
2016-08-10T02:11:48.837Z,24.5
2016-08-10T02:11:58.843Z,24.4
2016-08-10T02:12:08.849Z,24.4
2016-08-10T02:12:18.856Z,24.4
2016-08-10T02:12:28.859Z,24.4
2016-08-10T02:12:38.867Z,24.3
2016-08-10T02:12:48.872Z,24.4
2016-08-10T02:12:58.876Z,24.4
2016-08-10T02:13:08.881Z,24.4
2016-08-10T02:13:18.888Z,24.4
2016-08-10T02:13:28.893Z,24.5
2016-08-10T02:13:38.898Z,24.4
2016-08-10T02:13:48.903Z,24.4
2016-08-10T02:13:58.909Z,24.4
2016-08-10T02:14:08.913Z,24.4
2016-08-10T02:14:18.920Z,24.4
2016-08-10T02:14:28.925Z,24.4
2016-08-10T02:14:38.932Z,24.4
2016-08-10T02:14:48.937Z,24.5
2016-08-10T02:14:58.941Z,24.4
2016-08-10T02:15:08.947Z,24.4
2016-08-10T02:15:18.952Z,24.4
2016-08-10T02:15:28.958Z,24.4
2016-08-10T02:15:38.965Z,24.4
2016-08-10T02:15:48.968Z,24.4
2016-08-10T02:15:58.975Z,24.4